createdAt,value
2019-01-11T00:01:23.576Z,101661.61
2019-01-11T00:03:50.797Z,101659.33
2019-01-11T00:06:18.004Z,101655.77
2019-01-11T00:08:45.198Z,101656.87
2019-01-11T00:11:12.700Z,101650.41
2019-01-11T00:13:39.824Z,101652.91
2019-01-11T00:16:07.003Z,101659.41
2019-01-11T00:18:34.478Z,101653.81
2019-01-11T00:21:01.690Z,101649.39
2019-01-11T00:23:29.153Z,101654.96
2019-01-11T00:25:56.362Z,101648.93
2019-01-11T00:28:23.561Z,101652.86
2019-01-11T00:30:50.726Z,101649.80
2019-01-11T00:33:17.799Z,101650.17
2019-01-11T00:35:44.903Z,101647.08
2019-01-11T00:38:12.059Z,101641.94
2019-01-11T00:40:39.212Z,101643.17
2019-01-11T00:43:06.429Z,101642.34
2019-01-11T00:45:33.586Z,101636.74
2019-01-11T00:48:00.905Z,101635.97
2019-01-11T00:50:28.589Z,101635.94
2019-01-11T00:52:55.755Z,101628.57
2019-01-11T00:55:23.128Z,101640.95
2019-01-11T00:57:50.338Z,101634.45
2019-01-11T01:00:19.204Z,101637.42
2019-01-11T01:02:46.461Z,101630.16
2019-01-11T01:05:14.494Z,101637.77
2019-01-11T01:07:41.675Z,101630.16
2019-01-11T01:10:09.060Z,101625.33
2019-01-11T01:12:36.555Z,101625.66
2019-01-11T01:15:06.867Z,101623.63
2019-01-11T01:17:34.021Z,101632.50
2019-01-11T01:20:01.218Z,101639.12
2019-01-11T01:22:28.371Z,101637.02
2019-01-11T01:24:55.853Z,101629.22
2019-01-11T01:27:23.478Z,101630.41
2019-01-11T01:29:50.663Z,101617.34
2019-01-11T01:32:17.946Z,101624.70
2019-01-11T01:34:45.145Z,101615.20
2019-01-11T01:37:12.213Z,101612.20
2019-01-11T01:39:39.364Z,101609.64
2019-01-11T01:42:06.557Z,101608.65
2019-01-11T01:44:33.711Z,101615.02
2019-01-11T01:47:00.884Z,101611.55
2019-01-11T01:49:28.384Z,101618.02
2019-01-11T01:51:55.580Z,101606.84
2019-01-11T01:54:22.739Z,101603.05
2019-01-11T01:56:49.936Z,101612.50
2019-01-11T01:59:17.092Z,101614.00
2019-01-11T02:01:44.266Z,101615.23
2019-01-11T02:04:11.478Z,101612.97
2019-01-11T02:06:38.644Z,101613.47
2019-01-11T02:09:06.920Z,101608.44
2019-01-11T02:11:34.479Z,101605.91
2019-01-11T02:14:01.924Z,101604.37
2019-01-11T02:16:29.078Z,101607.06
2019-01-11T02:18:56.316Z,101607.00
2019-01-11T02:21:23.469Z,101602.30
2019-01-11T02:23:50.625Z,101601.00
2019-01-11T02:26:17.858Z,101608.39
2019-01-11T02:28:45.025Z,101609.16
2019-01-11T02:31:12.201Z,101606.44
2019-01-11T02:33:39.394Z,101607.38
2019-01-11T02:36:06.549Z,101597.11
2019-01-11T02:38:33.762Z,101595.64
2019-01-11T02:41:01.186Z,101596.55
2019-01-11T02:43:28.666Z,101600.84
2019-01-11T02:45:55.818Z,101593.64
2019-01-11T02:48:22.995Z,101591.70
2019-01-11T02:50:50.051Z,101591.01
2019-01-11T02:53:17.244Z,101591.58
2019-01-11T02:55:44.418Z,101587.47
2019-01-11T02:58:11.593Z,101589.94
2019-01-11T03:00:38.673Z,101592.67
2019-01-11T03:03:05.978Z,101587.17
2019-01-11T03:05:33.015Z,101586.80
2019-01-11T03:08:00.208Z,101582.23
2019-01-11T03:10:27.384Z,101582.73
2019-01-11T03:12:54.564Z,101589.17
2019-01-11T03:15:21.737Z,101581.10
2019-01-11T03:17:48.827Z,101579.99
2019-01-11T03:20:16.827Z,101577.48
2019-01-11T03:22:44.004Z,101578.95
2019-01-11T03:25:11.417Z,101583.20
2019-01-11T03:27:38.636Z,101575.55
2019-01-11T03:30:11.758Z,101574.25
2019-01-11T03:32:39.272Z,101573.27
2019-01-11T03:35:16.472Z,101572.83
2019-01-11T03:37:45.296Z,101573.91
2019-01-11T03:40:13.253Z,101572.05
2019-01-11T03:42:40.304Z,101573.91
2019-01-11T03:45:09.215Z,101571.38
2019-01-11T03:47:36.586Z,101566.11
2019-01-11T03:50:05.219Z,101567.38
2019-01-11T03:52:32.393Z,101571.28
2019-01-11T03:54:59.559Z,101570.91
2019-01-11T03:57:26.721Z,101568.91
2019-01-11T03:59:53.931Z,101561.45
2019-01-11T04:02:21.096Z,101567.78
2019-01-11T04:04:48.258Z,101565.05
2019-01-11T04:07:15.494Z,101571.42
2019-01-11T04:09:42.656Z,101566.45
2019-01-11T04:12:09.838Z,101567.81
2019-01-11T04:14:37.018Z,101570.66
2019-01-11T04:17:04.160Z,101568.25
2019-01-11T04:19:31.351Z,101566.17
2019-01-11T04:22:06.543Z,101568.00
2019-01-11T04:24:44.201Z,101567.08
2019-01-11T04:27:11.410Z,101562.19
2019-01-11T04:29:38.448Z,101563.33
2019-01-11T04:32:05.671Z,101557.26
2019-01-11T04:34:32.749Z,101566.32
2019-01-11T04:36:59.936Z,101562.80
2019-01-11T04:39:27.127Z,101559.11
2019-01-11T04:41:54.310Z,101571.38
2019-01-11T04:44:21.488Z,101575.80
2019-01-11T04:46:48.647Z,101568.87
2019-01-11T04:49:15.821Z,101573.20
2019-01-11T04:51:42.976Z,101567.23
2019-01-11T04:54:10.172Z,101567.72
2019-01-11T04:56:37.355Z,101569.58
2019-01-11T04:59:04.815Z,101566.70
2019-01-11T05:01:31.949Z,101562.47
2019-01-11T05:03:59.123Z,101564.48
2019-01-11T05:06:26.210Z,101561.11
2019-01-11T05:08:53.276Z,101555.31
2019-01-11T05:11:20.377Z,101558.02
2019-01-11T05:13:51.855Z,101557.67
2019-01-11T05:16:18.940Z,101557.30
2019-01-11T05:18:46.115Z,101550.53
2019-01-11T05:21:13.266Z,101552.54
2019-01-11T05:23:40.447Z,101555.45
2019-01-11T05:26:07.638Z,101553.25
2019-01-11T05:28:35.075Z,101547.33
2019-01-11T05:31:02.231Z,101548.13
2019-01-11T05:33:30.413Z,101557.88
2019-01-11T05:35:57.504Z,101549.63
2019-01-11T05:38:24.665Z,101550.92
2019-01-11T05:40:51.892Z,101547.63
2019-01-11T05:43:19.069Z,101551.63
2019-01-11T05:45:46.213Z,101540.70
2019-01-11T05:48:13.397Z,101530.20
2019-01-11T05:50:40.465Z,101533.84
2019-01-11T05:53:07.569Z,101532.92
2019-01-11T05:55:45.265Z,101530.92
2019-01-11T05:58:43.853Z,101534.40
2019-01-11T06:01:11.990Z,101537.93
2019-01-11T06:03:39.262Z,101531.40
2019-01-11T06:06:06.502Z,101528.90
2019-01-11T06:08:34.028Z,101532.03
2019-01-11T06:11:01.164Z,101526.13
2019-01-11T06:13:28.250Z,101523.38
2019-01-11T06:15:55.438Z,101519.08
2019-01-11T06:18:22.591Z,101522.48
2019-01-11T06:20:50.091Z,101514.53
2019-01-11T06:23:17.270Z,101510.77
2019-01-11T06:25:44.433Z,101511.19
2019-01-11T06:28:11.640Z,101513.23
2019-01-11T06:30:38.816Z,101504.70
2019-01-11T06:33:05.856Z,101506.46
2019-01-11T06:35:34.820Z,101503.50
2019-01-11T06:38:02.319Z,101504.52
2019-01-11T06:40:29.469Z,101503.80
2019-01-11T06:42:56.636Z,101507.23
2019-01-11T06:45:23.842Z,101510.00
2019-01-11T06:47:50.884Z,101512.54
2019-01-11T06:50:17.958Z,101504.64
2019-01-11T06:52:45.128Z,101509.44
2019-01-11T06:55:12.391Z,101507.72
2019-01-11T06:57:39.570Z,101502.15
2019-01-11T07:00:09.766Z,101502.28
2019-01-11T07:02:36.948Z,101503.08
2019-01-11T07:05:05.180Z,101504.87
2019-01-11T07:07:32.352Z,101495.72
2019-01-11T07:09:59.550Z,101498.81
2019-01-11T07:12:26.739Z,101497.41
2019-01-11T07:14:53.923Z,101497.87
2019-01-11T07:17:21.126Z,101492.17
2019-01-11T07:19:48.315Z,101497.10
2019-01-11T07:22:15.566Z,101498.09
2019-01-11T07:24:42.724Z,101497.50
2019-01-11T07:27:10.242Z,101493.13
2019-01-11T07:29:37.766Z,101490.06
2019-01-11T07:32:04.940Z,101491.30
2019-01-11T07:34:32.127Z,101490.61
2019-01-11T07:37:00.738Z,101492.13
2019-01-11T07:39:29.604Z,101502.38
2019-01-11T07:41:56.755Z,101502.91
2019-01-11T07:44:24.641Z,101501.67
2019-01-11T07:46:51.951Z,101489.80
2019-01-11T07:49:23.117Z,101495.01
2019-01-11T07:51:48.212Z,101491.16
2019-01-11T07:54:15.382Z,101488.84
2019-01-11T07:56:42.533Z,101488.16
2019-01-11T07:59:09.726Z,101485.95
2019-01-11T08:01:36.898Z,101483.75
2019-01-11T08:04:04.607Z,101475.55
2019-01-11T08:06:31.681Z,101480.35
2019-01-11T08:08:59.118Z,101480.97
2019-01-11T08:11:26.281Z,101476.42
2019-01-11T08:13:53.379Z,101482.99
2019-01-11T08:16:20.532Z,101483.86
2019-01-11T08:18:47.633Z,101479.89
2019-01-11T08:21:14.810Z,101477.39
2019-01-11T08:23:42.245Z,101481.22
2019-01-11T08:26:09.497Z,101473.82
2019-01-11T08:28:36.833Z,101478.98
2019-01-11T08:31:03.996Z,101473.39
2019-01-11T08:33:32.855Z,101475.88
2019-01-11T08:36:01.068Z,101477.11
2019-01-11T08:38:28.861Z,101482.02
2019-01-11T08:40:56.013Z,101480.75
2019-01-11T08:43:23.241Z,101473.67
2019-01-11T08:45:50.684Z,101482.30
2019-01-11T08:48:17.791Z,101482.02
2019-01-11T08:50:46.388Z,101469.01
2019-01-11T08:53:13.554Z,101471.46
2019-01-11T08:55:40.652Z,101466.91
2019-01-11T08:58:07.831Z,101480.03
2019-01-11T09:00:34.904Z,101466.55
2019-01-11T09:03:02.100Z,101473.67
2019-01-11T09:05:29.987Z,101471.62
2019-01-11T09:07:57.221Z,101469.34
2019-01-11T09:10:24.814Z,101472.73
2019-01-11T09:12:52.018Z,101473.75
2019-01-11T09:15:19.176Z,101473.53
2019-01-11T09:18:11.672Z,101474.91
2019-01-11T09:20:38.758Z,101476.13
2019-01-11T09:23:06.262Z,101476.02
2019-01-11T09:25:33.722Z,101472.92
2019-01-11T09:28:00.937Z,101467.39
2019-01-11T09:30:28.200Z,101470.24
2019-01-11T09:32:55.560Z,101475.19
2019-01-11T09:35:23.241Z,101475.59
2019-01-11T09:37:50.774Z,101476.09
2019-01-11T09:40:17.972Z,101469.62
2019-01-11T09:42:45.251Z,101477.20
2019-01-11T09:45:12.406Z,101481.91
2019-01-11T09:47:39.544Z,101486.20
2019-01-11T09:50:07.051Z,101491.77
2019-01-11T09:52:34.478Z,101478.50
2019-01-11T09:55:02.157Z,101480.59
2019-01-11T09:57:29.318Z,101479.25
2019-01-11T09:59:56.600Z,101484.53
2019-01-11T10:02:37.453Z,101470.22
2019-01-11T10:05:07.110Z,101474.25
2019-01-11T10:07:34.387Z,101474.34
2019-01-11T10:10:01.609Z,101461.64
2019-01-11T10:12:28.869Z,101459.91
2019-01-11T10:14:56.053Z,101463.13
2019-01-11T10:17:23.505Z,101467.13
2019-01-11T10:19:50.752Z,101467.44
2019-01-11T10:22:17.896Z,101472.48
2019-01-11T10:24:45.142Z,101472.05
2019-01-11T10:27:12.323Z,101471.69
2019-01-11T10:29:39.364Z,101481.78
2019-01-11T10:32:06.931Z,101471.50
2019-01-11T10:34:34.378Z,101467.04
2019-01-11T10:37:01.582Z,101460.81
2019-01-11T10:39:28.697Z,101454.63
2019-01-11T10:41:55.888Z,101453.12
2019-01-11T10:44:23.037Z,101455.45
2019-01-11T10:46:50.269Z,101453.83
2019-01-11T10:49:17.633Z,101445.31
2019-01-11T10:51:45.136Z,101443.61
2019-01-11T10:54:21.620Z,101441.64
2019-01-11T10:56:49.082Z,101439.91
2019-01-11T10:59:16.259Z,101435.33
2019-01-11T11:01:43.460Z,101438.80
2019-01-11T11:04:10.627Z,101428.98
2019-01-11T11:06:37.827Z,101422.43
2019-01-11T11:09:06.892Z,101418.17
2019-01-11T11:11:34.075Z,101416.63
2019-01-11T11:14:01.253Z,101418.73
2019-01-11T11:16:28.314Z,101400.94
2019-01-11T11:18:55.468Z,101395.56
2019-01-11T11:21:22.582Z,101397.88
2019-01-11T11:23:53.944Z,101395.00
2019-01-11T11:26:19.728Z,101399.61
2019-01-11T11:28:46.899Z,101398.00
2019-01-11T11:31:14.103Z,101399.78
2019-01-11T11:33:41.623Z,101389.93
2019-01-11T11:36:08.878Z,101391.93
2019-01-11T11:38:36.094Z,101398.48
2019-01-11T11:41:03.267Z,101393.97
2019-01-11T11:43:30.448Z,101394.23
2019-01-11T11:45:57.643Z,101396.66
2019-01-11T11:48:24.803Z,101387.84
2019-01-11T11:50:51.877Z,101388.23
2019-01-11T11:53:19.141Z,101385.36
2019-01-11T11:55:46.552Z,101380.02
2019-01-11T11:58:13.611Z,101377.55
2019-01-11T12:00:40.835Z,101380.05
2019-01-11T12:03:07.901Z,101387.00
2019-01-11T12:05:34.948Z,101380.11
2019-01-11T12:08:02.209Z,101377.47
2019-01-11T12:10:29.366Z,101375.21
2019-01-11T12:12:56.570Z,101369.82
2019-01-11T12:15:23.846Z,101366.68
2019-01-11T12:17:50.932Z,101366.86
2019-01-11T12:20:29.160Z,101365.21
2019-01-11T12:22:56.352Z,101366.84
2019-01-11T12:25:23.510Z,101359.47
2019-01-11T12:27:50.774Z,101357.96
2019-01-11T12:30:18.040Z,101354.63
2019-01-11T12:32:46.136Z,101351.04
2019-01-11T12:35:13.629Z,101348.44
2019-01-11T12:37:40.851Z,101343.05
2019-01-11T12:40:09.208Z,101339.66
2019-01-11T12:42:36.442Z,101341.57
2019-01-11T12:45:04.634Z,101338.36
2019-01-11T12:47:31.822Z,101344.13
2019-01-11T12:49:58.924Z,101344.78
2019-01-11T12:52:26.118Z,101343.61
2019-01-11T12:54:53.534Z,101336.52
2019-01-11T12:57:20.796Z,101336.17
2019-01-11T12:59:47.983Z,101333.44
2019-01-11T13:02:15.615Z,101331.18
2019-01-11T13:04:42.836Z,101327.97
2019-01-11T13:07:10.000Z,101320.95
2019-01-11T13:09:37.213Z,101325.47
2019-01-11T13:12:04.937Z,101321.13
2019-01-11T13:14:32.098Z,101322.30
2019-01-11T13:16:59.302Z,101318.91
2019-01-11T13:19:26.483Z,101318.22
2019-01-11T13:21:53.659Z,101319.38
2019-01-11T13:24:20.870Z,101304.55
2019-01-11T13:26:48.030Z,101303.93
2019-01-11T13:29:15.186Z,101293.44
2019-01-11T13:31:42.656Z,101294.47
2019-01-11T13:34:09.851Z,101288.34
2019-01-11T13:36:36.997Z,101292.75
2019-01-11T13:39:08.842Z,101302.83
2019-01-11T13:41:36.140Z,101296.11
2019-01-11T13:44:03.422Z,101307.66
2019-01-11T13:46:30.632Z,101315.98
2019-01-11T13:48:57.839Z,101314.00
2019-01-11T13:51:25.062Z,101314.12
2019-01-11T13:53:52.226Z,101314.17
2019-01-11T13:56:19.753Z,101314.46
2019-01-11T13:58:46.936Z,101314.95
2019-01-11T14:01:14.378Z,101317.00
2019-01-11T14:03:41.805Z,101318.52
2019-01-11T14:06:08.896Z,101325.73
2019-01-11T14:08:35.997Z,101325.42
2019-01-11T14:11:03.199Z,101310.53
2019-01-11T14:13:30.290Z,101313.95
2019-01-11T14:15:57.497Z,101312.52
2019-01-11T14:18:24.731Z,101302.23
2019-01-11T14:20:51.745Z,101306.45
2019-01-11T14:23:19.001Z,101316.00
2019-01-11T14:25:46.184Z,101315.01
2019-01-11T14:28:13.408Z,101317.78
2019-01-11T14:30:41.133Z,101320.12
2019-01-11T14:33:08.470Z,101309.41
2019-01-11T14:35:35.533Z,101305.28
2019-01-11T14:38:02.836Z,101299.28
2019-01-11T14:40:30.106Z,101298.33
2019-01-11T14:42:57.342Z,101306.97
2019-01-11T14:45:24.547Z,101309.70
2019-01-11T14:47:51.657Z,101311.15
2019-01-11T14:50:18.863Z,101307.59
2019-01-11T14:52:46.144Z,101308.97
2019-01-11T14:55:13.268Z,101313.79
2019-01-11T14:57:40.467Z,101304.16
2019-01-11T15:00:10.982Z,101309.45
2019-01-11T15:02:38.200Z,101309.84
2019-01-11T15:05:06.640Z,101301.94
2019-01-11T15:07:33.854Z,101309.92
2019-01-11T15:10:01.043Z,101306.93
2019-01-11T15:12:28.224Z,101300.20
2019-01-11T15:14:55.406Z,101304.89
2019-01-11T15:17:22.626Z,101304.55
2019-01-11T15:19:49.797Z,101300.07
2019-01-11T15:22:16.992Z,101303.24
2019-01-11T15:24:44.190Z,101301.20
2019-01-11T15:27:11.392Z,101300.91
2019-01-11T15:29:38.865Z,101294.42
2019-01-11T15:32:06.100Z,101299.38
2019-01-11T15:34:33.272Z,101288.57
2019-01-11T15:37:00.392Z,101289.35
2019-01-11T15:39:27.574Z,101298.55
2019-01-11T15:41:54.772Z,101291.13
2019-01-11T15:44:22.050Z,101293.34
2019-01-11T15:46:49.279Z,101282.27
2019-01-11T15:49:16.436Z,101279.06
2019-01-11T15:51:43.921Z,101277.20
2019-01-11T15:54:11.133Z,101284.70
2019-01-11T15:56:38.641Z,101283.14
2019-01-11T15:59:05.801Z,101279.62
2019-01-11T16:01:33.278Z,101278.89
2019-01-11T16:04:06.566Z,101279.89
2019-01-11T16:06:34.970Z,101282.05
2019-01-11T16:09:27.424Z,101282.23
2019-01-11T16:11:57.969Z,101278.37
2019-01-11T16:14:43.601Z,101281.27
2019-01-11T16:17:12.693Z,101276.10
2019-01-11T16:19:39.849Z,101279.05
2019-01-11T16:22:07.229Z,101275.02
2019-01-11T16:24:34.777Z,101284.31
2019-01-11T16:27:01.960Z,101280.41
2019-01-11T16:29:29.087Z,101281.10
2019-01-11T16:31:56.285Z,101280.63
2019-01-11T16:34:23.685Z,101277.63
2019-01-11T16:36:50.925Z,101280.23
2019-01-11T16:39:18.183Z,101284.70
2019-01-11T16:41:45.343Z,101290.99
2019-01-11T16:44:12.546Z,101281.36
2019-01-11T16:46:39.814Z,101276.68
2019-01-11T16:49:07.326Z,101278.33
2019-01-11T16:51:34.507Z,101272.43
2019-01-11T16:54:01.682Z,101268.26
2019-01-11T16:56:29.110Z,101274.47
2019-01-11T16:58:56.269Z,101270.86
2019-01-11T17:01:23.623Z,101279.41
2019-01-11T17:03:50.814Z,101278.45
2019-01-11T17:06:18.001Z,101273.69
2019-01-11T17:08:45.462Z,101277.98
2019-01-11T17:11:12.849Z,101280.06
2019-01-11T17:13:40.654Z,101283.02
2019-01-11T17:16:08.330Z,101283.36
2019-01-11T17:18:35.496Z,101277.29
2019-01-11T17:21:02.954Z,101285.05
2019-01-11T17:23:30.161Z,101287.44
2019-01-11T17:25:57.645Z,101286.09
2019-01-11T17:28:25.133Z,101294.25
2019-01-11T17:30:52.634Z,101283.92
2019-01-11T17:33:19.716Z,101283.02
2019-01-11T17:35:46.782Z,101280.48
2019-01-11T17:38:14.058Z,101281.61
2019-01-11T17:40:41.194Z,101282.52
2019-01-11T17:43:08.633Z,101275.77
2019-01-11T17:45:35.845Z,101280.91
2019-01-11T17:48:03.556Z,101282.96
2019-01-11T17:50:30.625Z,101272.20
2019-01-11T17:52:59.977Z,101274.36
2019-01-11T17:55:27.272Z,101268.86
2019-01-11T17:57:54.414Z,101268.77
2019-01-11T18:00:21.601Z,101269.25
2019-01-11T18:02:48.925Z,101265.18
2019-01-11T18:05:16.163Z,101268.63
2019-01-11T18:07:43.550Z,101276.41
2019-01-11T18:10:10.793Z,101274.02
2019-01-11T18:12:38.128Z,101281.88
2019-01-11T18:15:08.622Z,101282.00
2019-01-11T18:17:35.820Z,101281.78
2019-01-11T18:20:04.898Z,101276.50
2019-01-11T18:22:32.399Z,101283.17
2019-01-11T18:24:59.586Z,101279.56
2019-01-11T18:27:27.118Z,101270.88
2019-01-11T18:29:54.339Z,101272.27
2019-01-11T18:32:21.516Z,101270.41
2019-01-11T18:34:48.588Z,101276.11
2019-01-11T18:37:15.816Z,101272.93
2019-01-11T18:39:42.914Z,101272.67
2019-01-11T18:42:10.093Z,101269.72
2019-01-11T18:44:38.179Z,101265.41
2019-01-11T18:47:05.450Z,101269.01
2019-01-11T18:49:32.626Z,101267.63
2019-01-11T18:51:59.853Z,101271.76
2019-01-11T18:54:27.016Z,101269.59
2019-01-11T18:56:54.511Z,101265.30
2019-01-11T18:59:21.781Z,101264.28
2019-01-11T19:01:49.005Z,101269.36
2019-01-11T19:04:16.505Z,101257.25
2019-01-11T19:06:44.418Z,101260.80
2019-01-11T19:09:11.592Z,101266.74
2019-01-11T19:11:38.818Z,101262.28
2019-01-11T19:14:06.343Z,101267.63
2019-01-11T19:16:33.559Z,101273.66
2019-01-11T19:19:00.725Z,101270.67
2019-01-11T19:21:28.143Z,101272.88
2019-01-11T19:23:55.343Z,101268.53
2019-01-11T19:26:22.690Z,101261.55
2019-01-11T19:28:49.912Z,101260.41
2019-01-11T19:31:17.059Z,101269.30
2019-01-11T19:33:44.483Z,101263.87
2019-01-11T19:36:11.713Z,101264.53
2019-01-11T19:38:38.930Z,101251.42
2019-01-11T19:41:06.121Z,101271.27
2019-01-11T19:43:33.388Z,101263.67
2019-01-11T19:46:00.552Z,101258.07
2019-01-11T19:48:27.816Z,101264.87
2019-01-11T19:50:55.231Z,101272.30
2019-01-11T19:53:27.394Z,101274.72
2019-01-11T19:55:51.502Z,101278.14
2019-01-11T19:58:18.608Z,101279.12
2019-01-11T20:00:45.852Z,101277.38
2019-01-11T20:03:12.970Z,101283.19
2019-01-11T20:05:40.216Z,101269.92
2019-01-11T20:08:07.753Z,101275.58
2019-01-11T20:10:34.939Z,101280.98
2019-01-11T20:13:02.313Z,101275.66
2019-01-11T20:15:29.943Z,101279.91
2019-01-11T20:17:57.378Z,101278.78
2019-01-11T20:20:24.620Z,101279.84
2019-01-11T20:22:51.787Z,101284.18
2019-01-11T20:25:20.218Z,101284.86
2019-01-11T20:27:47.457Z,101282.48
2019-01-11T20:30:17.000Z,101277.12
2019-01-11T20:32:44.262Z,101279.72
2019-01-11T20:35:11.575Z,101280.98
2019-01-11T20:37:39.376Z,101276.84
2019-01-11T20:40:08.981Z,101277.51
2019-01-11T20:42:36.202Z,101283.11
2019-01-11T20:45:04.401Z,101281.87
2019-01-11T20:47:31.565Z,101281.76
2019-01-11T20:49:58.796Z,101287.75
2019-01-11T20:52:25.998Z,101285.62
2019-01-11T20:54:53.201Z,101279.65
2019-01-11T20:57:20.430Z,101275.56
2019-01-11T20:59:47.640Z,101279.70
2019-01-11T21:02:14.796Z,101277.07
2019-01-11T21:04:42.008Z,101263.23
2019-01-11T21:07:09.180Z,101278.42
2019-01-11T21:09:36.402Z,101273.65
2019-01-11T21:12:03.818Z,101287.36
2019-01-11T21:14:31.036Z,101285.52
2019-01-11T21:16:58.523Z,101270.78
2019-01-11T21:19:25.718Z,101268.31
2019-01-11T21:21:52.904Z,101282.54
2019-01-11T21:24:20.114Z,101280.63
2019-01-11T21:26:47.197Z,101278.97
2019-01-11T21:29:14.396Z,101279.12
2019-01-11T21:31:41.511Z,101279.91
2019-01-11T21:34:08.715Z,101273.09
2019-01-11T21:36:35.922Z,101270.89
2019-01-11T21:39:05.037Z,101274.67
2019-01-11T21:41:32.287Z,101270.71
2019-01-11T21:43:59.447Z,101280.06
2019-01-11T21:46:26.934Z,101284.41
2019-01-11T21:48:54.626Z,101280.89
2019-01-11T21:51:21.851Z,101286.17
2019-01-11T21:53:55.593Z,101287.66
2019-01-11T21:56:18.134Z,101284.39
2019-01-11T21:58:45.308Z,101274.56
2019-01-11T22:01:12.536Z,101277.06
2019-01-11T22:03:39.761Z,101269.14
2019-01-11T22:06:06.870Z,101278.73
2019-01-11T22:08:34.199Z,101278.01
2019-01-11T22:11:01.445Z,101282.10
2019-01-11T22:13:28.520Z,101275.38
2019-01-11T22:15:55.691Z,101275.77
2019-01-11T22:18:22.899Z,101287.70
2019-01-11T22:20:49.976Z,101279.08
2019-01-11T22:23:23.754Z,101271.85
2019-01-11T22:25:46.575Z,101278.47
2019-01-11T22:28:13.728Z,101272.06
2019-01-11T22:30:40.893Z,101264.88
2019-01-11T22:33:08.117Z,101269.06
2019-01-11T22:35:35.404Z,101283.64
2019-01-11T22:38:02.682Z,101287.34
2019-01-11T22:40:29.901Z,101301.16
2019-01-11T22:42:58.115Z,101287.10
2019-01-11T22:45:25.326Z,101286.92
2019-01-11T22:47:52.427Z,101294.40
2019-01-11T22:50:19.640Z,101296.05
2019-01-11T22:52:46.851Z,101291.74
2019-01-11T22:55:14.676Z,101292.03
2019-01-11T22:57:41.851Z,101290.86
2019-01-11T23:00:34.486Z,101300.66
2019-01-11T23:03:02.337Z,101298.67
2019-01-11T23:05:29.833Z,101298.67
2019-01-11T23:08:00.387Z,101286.42
2019-01-11T23:10:56.085Z,101286.24
2019-01-11T23:13:23.317Z,101295.42
2019-01-11T23:15:54.749Z,101281.52
2019-01-11T23:18:23.908Z,101281.76
2019-01-11T23:20:53.818Z,101281.09
2019-01-11T23:23:21.010Z,101278.23
2019-01-11T23:25:48.205Z,101286.25
2019-01-11T23:28:15.438Z,101292.09
2019-01-11T23:30:42.910Z,101284.94
2019-01-11T23:33:10.356Z,101296.67
2019-01-11T23:35:37.852Z,101291.03
2019-01-11T23:38:05.108Z,101291.48
2019-01-11T23:40:32.323Z,101292.25
2019-01-11T23:42:59.561Z,101291.61
2019-01-11T23:45:26.722Z,101286.40
2019-01-11T23:47:53.787Z,101289.89
2019-01-11T23:50:21.032Z,101286.55
2019-01-11T23:52:48.107Z,101294.66
2019-01-11T23:55:15.315Z,101298.13
2019-01-11T23:57:42.410Z,101291.36
